sensor_id;sensor_type;location;lat;lon;timestamp;temperature;humidity
64209;DHT22;50527;52.414;13.226;2022-12-29T00:01:15;8.10;99.90
64209;DHT22;50527;52.414;13.226;2022-12-29T00:03:40;8.10;99.90
64209;DHT22;50527;52.414;13.226;2022-12-29T00:06:06;8.10;99.90
64209;DHT22;50527;52.414;13.226;2022-12-29T00:08:31;8.20;99.90
64209;DHT22;50527;52.414;13.226;2022-12-29T00:11:10;8.20;99.90
64209;DHT22;50527;52.414;13.226;2022-12-29T00:13:37;8.20;99.90
64209;DHT22;50527;52.414;13.226;2022-12-29T00:16:21;8.20;99.90
64209;DHT22;50527;52.414;13.226;2022-12-29T00:18:46;8.20;99.90
64209;DHT22;50527;52.414;13.226;2022-12-29T00:21:17;8.20;99.90
64209;DHT22;50527;52.414;13.226;2022-12-29T00:24:01;8.20;99.90
64209;DHT22;50527;52.414;13.226;2022-12-29T00:26:58;8.20;99.90
64209;DHT22;50527;52.414;13.226;2022-12-29T00:29:42;8.20;99.90
64209;DHT22;50527;52.414;13.226;2022-12-29T00:32:26;8.30;99.70
64209;DHT22;50527;52.414;13.226;2022-12-29T00:35:11;8.30;99.90
64209;DHT22;50527;52.414;13.226;2022-12-29T00:37:43;8.30;99.90
64209;DHT22;50527;52.414;13.226;2022-12-29T00:40:27;8.30;99.90
64209;DHT22;50527;52.414;13.226;2022-12-29T00:43:11;8.30;99.90
64209;DHT22;50527;52.414;13.226;2022-12-29T00:45:55;8.20;99.90
64209;DHT22;50527;52.414;13.226;2022-12-29T00:48:21;8.20;99.90
64209;DHT22;50527;52.414;13.226;2022-12-29T00:51:05;8.20;99.90
64209;DHT22;50527;52.414;13.226;2022-12-29T00:53:31;8.20;99.90
64209;DHT22;50527;52.414;13.226;2022-12-29T00:55:57;8.20;99.90
64209;DHT22;50527;52.414;13.226;2022-12-29T00:58:22;8.20;99.90
64209;DHT22;50527;52.414;13.226;2022-12-29T01:00:47;8.10;99.90
64209;DHT22;50527;52.414;13.226;2022-12-29T01:03:13;8.20;99.90
64209;DHT22;50527;52.414;13.226;2022-12-29T01:05:38;8.10;99.90
64209;DHT22;50527;52.414;13.226;2022-12-29T01:08:04;8.10;99.90
64209;DHT22;50527;52.414;13.226;2022-12-29T01:10:29;8.10;99.90
64209;DHT22;50527;52.414;13.226;2022-12-29T01:12:55;8.10;99.90
64209;DHT22;50527;52.414;13.226;2022-12-29T01:15:20;8.10;99.90
64209;DHT22;50527;52.414;13.226;2022-12-29T01:17:46;8.20;99.90
64209;DHT22;50527;52.414;13.226;2022-12-29T01:20:12;8.20;99.90
64209;DHT22;50527;52.414;13.226;2022-12-29T01:22:37;8.20;99.90
64209;DHT22;50527;52.414;13.226;2022-12-29T01:25:04;8.20;99.90
64209;DHT22;50527;52.414;13.226;2022-12-29T01:27:30;8.30;99.90
64209;DHT22;50527;52.414;13.226;2022-12-29T01:29:55;8.30;99.80
64209;DHT22;50527;52.414;13.226;2022-12-29T01:32:21;8.30;99.90
64209;DHT22;50527;52.414;13.226;2022-12-29T01:34:46;8.30;99.90
64209;DHT22;50527;52.414;13.226;2022-12-29T01:37:12;8.30;99.90
64209;DHT22;50527;52.414;13.226;2022-12-29T01:39:37;8.30;99.90
64209;DHT22;50527;52.414;13.226;2022-12-29T01:42:03;8.20;99.90
64209;DHT22;50527;52.414;13.226;2022-12-29T01:44:51;8.20;99.90
64209;DHT22;50527;52.414;13.226;2022-12-29T01:47:53;8.10;99.90
64209;DHT22;50527;52.414;13.226;2022-12-29T01:50:26;8.10;99.90
64209;DHT22;50527;52.414;13.226;2022-12-29T01:53:04;8.10;99.90
64209;DHT22;50527;52.414;13.226;2022-12-29T01:55:36;8.20;99.90
64209;DHT22;50527;52.414;13.226;2022-12-29T01:58:04;8.10;99.90
64209;DHT22;50527;52.414;13.226;2022-12-29T02:00:31;8.20;99.90
64209;DHT22;50527;52.414;13.226;2022-12-29T02:02:57;8.20;99.90
64209;DHT22;50527;52.414;13.226;2022-12-29T02:05:33;8.20;99.90
64209;DHT22;50527;52.414;13.226;2022-12-29T02:08:01;8.20;99.90
64209;DHT22;50527;52.414;13.226;2022-12-29T02:10:29;8.10;99.90
64209;DHT22;50527;52.414;13.226;2022-12-29T02:12:56;8.10;99.90
64209;DHT22;50527;52.414;13.226;2022-12-29T02:18:27;8.20;99.90
64209;DHT22;50527;52.414;13.226;2022-12-29T02:21:16;8.30;99.60
64209;DHT22;50527;52.414;13.226;2022-12-29T02:24:14;8.40;98.10
64209;DHT22;50527;52.414;13.226;2022-12-29T02:26:52;8.50;97.20
64209;DHT22;50527;52.414;13.226;2022-12-29T02:29:51;8.50;97.70
64209;DHT22;50527;52.414;13.226;2022-12-29T02:35:31;8.50;97.80
64209;DHT22;50527;52.414;13.226;2022-12-29T02:41:02;8.70;95.30
64209;DHT22;50527;52.414;13.226;2022-12-29T02:49:15;8.90;95.10
64209;DHT22;50527;52.414;13.226;2022-12-29T02:51:59;8.90;95.10
64209;DHT22;50527;52.414;13.226;2022-12-29T02:54:26;8.90;94.40
64209;DHT22;50527;52.414;13.226;2022-12-29T02:59:57;9.00;93.70
64209;DHT22;50527;52.414;13.226;2022-12-29T03:02:34;9.00;93.30
64209;DHT22;50527;52.414;13.226;2022-12-29T03:05:30;9.00;92.80
64209;DHT22;50527;52.414;13.226;2022-12-29T03:10:49;9.10;92.60
64209;DHT22;50527;52.414;13.226;2022-12-29T03:13:28;9.10;92.80
64209;DHT22;50527;52.414;13.226;2022-12-29T03:16:21;9.20;92.70
64209;DHT22;50527;52.414;13.226;2022-12-29T03:21:38;9.20;92.50
64209;DHT22;50527;52.414;13.226;2022-12-29T03:24:27;9.20;93.00
64209;DHT22;50527;52.414;13.226;2022-12-29T03:26:56;9.20;93.70
64209;DHT22;50527;52.414;13.226;2022-12-29T03:29:23;9.30;92.60
64209;DHT22;50527;52.414;13.226;2022-12-29T03:31:51;9.20;93.10
64209;DHT22;50527;52.414;13.226;2022-12-29T03:34:20;9.30;92.40
64209;DHT22;50527;52.414;13.226;2022-12-29T03:37:02;9.30;92.50
64209;DHT22;50527;52.414;13.226;2022-12-29T03:39:30;9.40;92.90
64209;DHT22;50527;52.414;13.226;2022-12-29T03:42:01;9.50;92.00
64209;DHT22;50527;52.414;13.226;2022-12-29T03:44:46;9.50;92.30
64209;DHT22;50527;52.414;13.226;2022-12-29T03:47:13;9.50;92.10
64209;DHT22;50527;52.414;13.226;2022-12-29T03:49:40;9.50;93.00
64209;DHT22;50527;52.414;13.226;2022-12-29T03:52:05;9.50;92.40
64209;DHT22;50527;52.414;13.226;2022-12-29T03:54:31;9.50;92.70
64209;DHT22;50527;52.414;13.226;2022-12-29T03:56:57;9.50;92.70
64209;DHT22;50527;52.414;13.226;2022-12-29T03:59:23;9.50;92.50
64209;DHT22;50527;52.414;13.226;2022-12-29T04:01:48;9.50;92.80
64209;DHT22;50527;52.414;13.226;2022-12-29T04:04:14;9.50;92.60
64209;DHT22;50527;52.414;13.226;2022-12-29T04:06:39;9.50;92.50
64209;DHT22;50527;52.414;13.226;2022-12-29T04:09:05;9.60;92.40
64209;DHT22;50527;52.414;13.226;2022-12-29T04:11:31;9.60;92.60
64209;DHT22;50527;52.414;13.226;2022-12-29T04:13:56;9.60;92.70
64209;DHT22;50527;52.414;13.226;2022-12-29T04:16:22;9.60;93.10
64209;DHT22;50527;52.414;13.226;2022-12-29T04:18:47;9.60;92.60
64209;DHT22;50527;52.414;13.226;2022-12-29T04:21:13;9.60;92.50
64209;DHT22;50527;52.414;13.226;2022-12-29T04:23:39;9.60;92.90
64209;DHT22;50527;52.414;13.226;2022-12-29T04:26:06;9.60;92.60
64209;DHT22;50527;52.414;13.226;2022-12-29T04:28:32;9.60;92.20
64209;DHT22;50527;52.414;13.226;2022-12-29T04:30:57;9.60;92.10
64209;DHT22;50527;52.414;13.226;2022-12-29T04:33:23;9.70;92.00
64209;DHT22;50527;52.414;13.226;2022-12-29T04:35:49;9.70;92.00
64209;DHT22;50527;52.414;13.226;2022-12-29T04:38:15;9.70;92.00
64209;DHT22;50527;52.414;13.226;2022-12-29T04:40:42;9.70;92.10
64209;DHT22;50527;52.414;13.226;2022-12-29T04:43:08;9.70;92.20
64209;DHT22;50527;52.414;13.226;2022-12-29T04:45:33;9.70;92.20
64209;DHT22;50527;52.414;13.226;2022-12-29T04:47:59;9.70;92.50
64209;DHT22;50527;52.414;13.226;2022-12-29T04:50:24;9.70;92.40
64209;DHT22;50527;52.414;13.226;2022-12-29T04:52:50;9.60;92.30
64209;DHT22;50527;52.414;13.226;2022-12-29T04:55:15;9.70;92.30
64209;DHT22;50527;52.414;13.226;2022-12-29T04:57:41;9.70;92.30
64209;DHT22;50527;52.414;13.226;2022-12-29T05:00:07;9.70;92.30
64209;DHT22;50527;52.414;13.226;2022-12-29T05:02:35;9.70;92.40
64209;DHT22;50527;52.414;13.226;2022-12-29T05:05:00;9.70;92.60
64209;DHT22;50527;52.414;13.226;2022-12-29T05:07:26;9.70;92.90
64209;DHT22;50527;52.414;13.226;2022-12-29T05:09:51;9.70;92.50
64209;DHT22;50527;52.414;13.226;2022-12-29T05:12:17;9.80;92.20
64209;DHT22;50527;52.414;13.226;2022-12-29T05:14:42;9.80;92.70
64209;DHT22;50527;52.414;13.226;2022-12-29T05:17:08;9.80;92.60
64209;DHT22;50527;52.414;13.226;2022-12-29T05:19:33;9.90;92.80
64209;DHT22;50527;52.414;13.226;2022-12-29T05:21:58;9.90;92.60
64209;DHT22;50527;52.414;13.226;2022-12-29T05:24:24;9.90;92.60
64209;DHT22;50527;52.414;13.226;2022-12-29T05:26:49;10.00;92.20
64209;DHT22;50527;52.414;13.226;2022-12-29T05:29:15;10.10;92.20
64209;DHT22;50527;52.414;13.226;2022-12-29T05:31:40;10.10;92.20
64209;DHT22;50527;52.414;13.226;2022-12-29T05:34:06;10.10;92.50
64209;DHT22;50527;52.414;13.226;2022-12-29T05:36:31;10.10;93.00
64209;DHT22;50527;52.414;13.226;2022-12-29T05:38:57;10.10;92.50
64209;DHT22;50527;52.414;13.226;2022-12-29T05:41:22;10.10;92.30
64209;DHT22;50527;52.414;13.226;2022-12-29T05:43:48;10.20;92.00
64209;DHT22;50527;52.414;13.226;2022-12-29T05:46:13;10.30;91.50
64209;DHT22;50527;52.414;13.226;2022-12-29T05:48:39;10.40;92.00
64209;DHT22;50527;52.414;13.226;2022-12-29T05:51:04;10.30;91.80
64209;DHT22;50527;52.414;13.226;2022-12-29T05:53:30;10.40;91.40
64209;DHT22;50527;52.414;13.226;2022-12-29T05:55:55;10.50;91.50
64209;DHT22;50527;52.414;13.226;2022-12-29T05:58:21;10.40;91.70
64209;DHT22;50527;52.414;13.226;2022-12-29T06:00:46;10.40;91.20
64209;DHT22;50527;52.414;13.226;2022-12-29T06:03:12;10.40;91.70
64209;DHT22;50527;52.414;13.226;2022-12-29T06:05:37;10.50;91.70
64209;DHT22;50527;52.414;13.226;2022-12-29T06:08:03;10.50;91.50
64209;DHT22;50527;52.414;13.226;2022-12-29T06:10:29;10.50;91.70
64209;DHT22;50527;52.414;13.226;2022-12-29T06:12:54;10.50;91.50
64209;DHT22;50527;52.414;13.226;2022-12-29T06:15:20;10.50;91.70
64209;DHT22;50527;52.414;13.226;2022-12-29T06:17:45;10.60;91.40
64209;DHT22;50527;52.414;13.226;2022-12-29T06:20:11;10.60;91.10
64209;DHT22;50527;52.414;13.226;2022-12-29T06:22:37;10.60;91.30
64209;DHT22;50527;52.414;13.226;2022-12-29T06:25:03;10.60;91.50
64209;DHT22;50527;52.414;13.226;2022-12-29T06:27:28;10.60;91.60
64209;DHT22;50527;52.414;13.226;2022-12-29T06:29:54;10.50;91.90
64209;DHT22;50527;52.414;13.226;2022-12-29T06:32:20;10.50;91.90
64209;DHT22;50527;52.414;13.226;2022-12-29T06:34:45;10.50;91.80
64209;DHT22;50527;52.414;13.226;2022-12-29T06:37:11;10.50;91.80
64209;DHT22;50527;52.414;13.226;2022-12-29T06:39:37;10.50;92.40
64209;DHT22;50527;52.414;13.226;2022-12-29T06:42:02;10.50;92.20
64209;DHT22;50527;52.414;13.226;2022-12-29T06:44:28;10.50;92.10
64209;DHT22;50527;52.414;13.226;2022-12-29T06:46:53;10.50;91.80
64209;DHT22;50527;52.414;13.226;2022-12-29T06:49:19;10.50;92.30
64209;DHT22;50527;52.414;13.226;2022-12-29T06:51:44;10.40;92.50
64209;DHT22;50527;52.414;13.226;2022-12-29T06:54:10;10.40;92.50
64209;DHT22;50527;52.414;13.226;2022-12-29T06:56:36;10.40;92.50
64209;DHT22;50527;52.414;13.226;2022-12-29T06:59:01;10.40;92.40
64209;DHT22;50527;52.414;13.226;2022-12-29T07:01:27;10.40;92.40
64209;DHT22;50527;52.414;13.226;2022-12-29T07:03:52;10.40;92.30
64209;DHT22;50527;52.414;13.226;2022-12-29T07:06:18;10.40;92.40
64209;DHT22;50527;52.414;13.226;2022-12-29T07:08:43;10.40;92.50
64209;DHT22;50527;52.414;13.226;2022-12-29T07:11:09;10.30;92.60
64209;DHT22;50527;52.414;13.226;2022-12-29T07:13:35;10.30;92.90
64209;DHT22;50527;52.414;13.226;2022-12-29T07:16:05;10.30;92.90
64209;DHT22;50527;52.414;13.226;2022-12-29T07:18:31;10.20;93.00
64209;DHT22;50527;52.414;13.226;2022-12-29T07:20:57;10.10;93.50
64209;DHT22;50527;52.414;13.226;2022-12-29T07:23:22;10.10;93.70
64209;DHT22;50527;52.414;13.226;2022-12-29T07:25:48;10.10;93.70
64209;DHT22;50527;52.414;13.226;2022-12-29T07:28:13;10.10;93.80
64209;DHT22;50527;52.414;13.226;2022-12-29T07:30:39;10.10;93.80
64209;DHT22;50527;52.414;13.226;2022-12-29T07:33:04;10.10;94.00
64209;DHT22;50527;52.414;13.226;2022-12-29T07:35:30;10.00;94.10
64209;DHT22;50527;52.414;13.226;2022-12-29T07:37:55;10.10;94.30
64209;DHT22;50527;52.414;13.226;2022-12-29T07:40:21;10.00;94.40
64209;DHT22;50527;52.414;13.226;2022-12-29T07:42:46;10.10;94.30
64209;DHT22;50527;52.414;13.226;2022-12-29T07:45:12;10.20;93.80
64209;DHT22;50527;52.414;13.226;2022-12-29T07:47:37;10.20;93.90
64209;DHT22;50527;52.414;13.226;2022-12-29T07:50:03;10.20;93.90
64209;DHT22;50527;52.414;13.226;2022-12-29T07:52:29;10.30;93.80
64209;DHT22;50527;52.414;13.226;2022-12-29T07:54:55;10.20;93.80
64209;DHT22;50527;52.414;13.226;2022-12-29T07:57:20;10.30;93.80
64209;DHT22;50527;52.414;13.226;2022-12-29T07:59:45;10.30;93.90
64209;DHT22;50527;52.414;13.226;2022-12-29T08:02:11;10.30;93.90
64209;DHT22;50527;52.414;13.226;2022-12-29T08:04:36;10.20;94.00
64209;DHT22;50527;52.414;13.226;2022-12-29T08:07:02;10.20;94.00
64209;DHT22;50527;52.414;13.226;2022-12-29T08:09:27;10.30;93.90
64209;DHT22;50527;52.414;13.226;2022-12-29T08:11:53;10.30;93.80
64209;DHT22;50527;52.414;13.226;2022-12-29T08:14:19;10.40;93.50
64209;DHT22;50527;52.414;13.226;2022-12-29T08:16:45;10.40;93.70
64209;DHT22;50527;52.414;13.226;2022-12-29T08:19:12;10.40;93.70
64209;DHT22;50527;52.414;13.226;2022-12-29T08:21:38;10.40;93.70
64209;DHT22;50527;52.414;13.226;2022-12-29T08:24:04;10.40;93.40
64209;DHT22;50527;52.414;13.226;2022-12-29T08:26:29;10.40;93.50
64209;DHT22;50527;52.414;13.226;2022-12-29T08:28:55;10.50;93.20
64209;DHT22;50527;52.414;13.226;2022-12-29T08:31:23;10.50;93.50
64209;DHT22;50527;52.414;13.226;2022-12-29T08:33:49;10.40;93.40
64209;DHT22;50527;52.414;13.226;2022-12-29T08:36:14;10.40;93.60
64209;DHT22;50527;52.414;13.226;2022-12-29T08:38:40;10.40;93.60
64209;DHT22;50527;52.414;13.226;2022-12-29T08:41:06;10.40;93.80
64209;DHT22;50527;52.414;13.226;2022-12-29T08:43:31;10.40;93.40
64209;DHT22;50527;52.414;13.226;2022-12-29T08:45:58;10.50;93.30
64209;DHT22;50527;52.414;13.226;2022-12-29T08:48:24;10.40;93.50
64209;DHT22;50527;52.414;13.226;2022-12-29T08:50:50;10.40;93.40
64209;DHT22;50527;52.414;13.226;2022-12-29T08:53:16;10.50;93.50
64209;DHT22;50527;52.414;13.226;2022-12-29T08:55:45;10.40;93.60
64209;DHT22;50527;52.414;13.226;2022-12-29T08:58:10;10.40;93.40
64209;DHT22;50527;52.414;13.226;2022-12-29T09:00:40;10.50;93.60
64209;DHT22;50527;52.414;13.226;2022-12-29T09:03:06;10.60;92.90
64209;DHT22;50527;52.414;13.226;2022-12-29T09:05:31;10.70;92.90
64209;DHT22;50527;52.414;13.226;2022-12-29T09:07:56;10.70;92.60
64209;DHT22;50527;52.414;13.226;2022-12-29T09:10:22;10.80;92.10
64209;DHT22;50527;52.414;13.226;2022-12-29T09:12:47;10.80;92.10
64209;DHT22;50527;52.414;13.226;2022-12-29T09:15:13;10.80;92.10
64209;DHT22;50527;52.414;13.226;2022-12-29T09:17:38;10.80;92.50
64209;DHT22;50527;52.414;13.226;2022-12-29T09:20:12;10.80;92.70
64209;DHT22;50527;52.414;13.226;2022-12-29T09:22:38;10.80;92.80
64209;DHT22;50527;52.414;13.226;2022-12-29T09:25:04;10.90;92.50
64209;DHT22;50527;52.414;13.226;2022-12-29T09:27:30;11.00;92.20
64209;DHT22;50527;52.414;13.226;2022-12-29T09:29:55;11.20;91.50
64209;DHT22;50527;52.414;13.226;2022-12-29T09:32:21;11.40;91.00
64209;DHT22;50527;52.414;13.226;2022-12-29T09:34:46;11.60;90.40
64209;DHT22;50527;52.414;13.226;2022-12-29T09:37:12;11.70;90.00
64209;DHT22;50527;52.414;13.226;2022-12-29T09:39:37;11.50;89.90
64209;DHT22;50527;52.414;13.226;2022-12-29T09:42:19;11.50;90.10
64209;DHT22;50527;52.414;13.226;2022-12-29T09:44:52;11.60;90.00
64209;DHT22;50527;52.414;13.226;2022-12-29T09:47:21;11.70;89.90
64209;DHT22;50527;52.414;13.226;2022-12-29T09:49:54;11.70;89.80
64209;DHT22;50527;52.414;13.226;2022-12-29T09:52:25;11.80;89.70
64209;DHT22;50527;52.414;13.226;2022-12-29T09:55:03;11.80;90.10
64209;DHT22;50527;52.414;13.226;2022-12-29T10:00:14;11.90;89.60
64209;DHT22;50527;52.414;13.226;2022-12-29T10:02:55;11.90;89.70
64209;DHT22;50527;52.414;13.226;2022-12-29T10:05:39;12.00;90.00
64209;DHT22;50527;52.414;13.226;2022-12-29T10:11:34;12.10;88.70
64209;DHT22;50527;52.414;13.226;2022-12-29T10:14:09;12.20;87.80
64209;DHT22;50527;52.414;13.226;2022-12-29T10:16:59;12.20;87.50
64209;DHT22;50527;52.414;13.226;2022-12-29T10:22:38;12.30;87.50
64209;DHT22;50527;52.414;13.226;2022-12-29T10:25:20;12.30;88.30
64209;DHT22;50527;52.414;13.226;2022-12-29T10:27:48;12.40;86.80
64209;DHT22;50527;52.414;13.226;2022-12-29T10:30:14;12.40;87.80
64209;DHT22;50527;52.414;13.226;2022-12-29T10:32:58;12.50;87.60
64209;DHT22;50527;52.414;13.226;2022-12-29T10:35:35;12.60;87.40
64209;DHT22;50527;52.414;13.226;2022-12-29T10:38:38;12.60;86.80
64209;DHT22;50527;52.414;13.226;2022-12-29T10:41:14;12.50;87.20
64209;DHT22;50527;52.414;13.226;2022-12-29T10:43:53;12.40;87.20
64209;DHT22;50527;52.414;13.226;2022-12-29T10:46:32;12.40;87.30
64209;DHT22;50527;52.414;13.226;2022-12-29T10:48:59;12.40;87.60
64209;DHT22;50527;52.414;13.226;2022-12-29T10:51:27;12.40;88.30
64209;DHT22;50527;52.414;13.226;2022-12-29T10:54:18;12.50;87.00
64209;DHT22;50527;52.414;13.226;2022-12-29T10:56:51;12.40;88.00
64209;DHT22;50527;52.414;13.226;2022-12-29T10:59:26;12.40;88.50
64209;DHT22;50527;52.414;13.226;2022-12-29T11:07:18;12.30;88.60
64209;DHT22;50527;52.414;13.226;2022-12-29T11:09:45;12.20;88.80
64209;DHT22;50527;52.414;13.226;2022-12-29T11:12:25;12.30;89.30
64209;DHT22;50527;52.414;13.226;2022-12-29T11:17:52;12.30;90.10
64209;DHT22;50527;52.414;13.226;2022-12-29T11:22:52;12.10;91.10
64209;DHT22;50527;52.414;13.226;2022-12-29T11:25:17;12.10;91.00
64209;DHT22;50527;52.414;13.226;2022-12-29T11:28:27;12.10;91.80
64209;DHT22;50527;52.414;13.226;2022-12-29T11:30:59;12.10;92.70
64209;DHT22;50527;52.414;13.226;2022-12-29T11:33:28;12.00;93.80
64209;DHT22;50527;52.414;13.226;2022-12-29T11:35:57;11.90;94.80
64209;DHT22;50527;52.414;13.226;2022-12-29T11:38:29;11.80;95.80
64209;DHT22;50527;52.414;13.226;2022-12-29T11:40:56;11.70;96.30
64209;DHT22;50527;52.414;13.226;2022-12-29T11:43:43;11.60;97.00
64209;DHT22;50527;52.414;13.226;2022-12-29T11:46:19;11.50;97.80
64209;DHT22;50527;52.414;13.226;2022-12-29T11:48:46;11.50;98.50
64209;DHT22;50527;52.414;13.226;2022-12-29T11:51:13;11.40;99.50
64209;DHT22;50527;52.414;13.226;2022-12-29T11:53:49;11.40;99.90
64209;DHT22;50527;52.414;13.226;2022-12-29T11:56:20;11.30;99.90
64209;DHT22;50527;52.414;13.226;2022-12-29T11:58:49;11.30;99.90
64209;DHT22;50527;52.414;13.226;2022-12-29T12:01:24;11.00;99.90
64209;DHT22;50527;52.414;13.226;2022-12-29T12:04:09;10.90;99.90
64209;DHT22;50527;52.414;13.226;2022-12-29T12:06:44;10.70;99.90
64209;DHT22;50527;52.414;13.226;2022-12-29T12:09:18;10.50;99.90
64209;DHT22;50527;52.414;13.226;2022-12-29T12:11:45;10.40;99.90
64209;DHT22;50527;52.414;13.226;2022-12-29T12:16:57;10.30;99.90
64209;DHT22;50527;52.414;13.226;2022-12-29T12:22:38;10.20;99.90
64209;DHT22;50527;52.414;13.226;2022-12-29T12:25:18;10.30;99.90
64209;DHT22;50527;52.414;13.226;2022-12-29T12:27:52;10.20;99.90
64209;DHT22;50527;52.414;13.226;2022-12-29T12:30:24;10.20;99.90
64209;DHT22;50527;52.414;13.226;2022-12-29T12:33:03;10.20;99.90
64209;DHT22;50527;52.414;13.226;2022-12-29T12:38:32;10.10;99.90
64209;DHT22;50527;52.414;13.226;2022-12-29T12:41:08;10.10;99.90
64209;DHT22;50527;52.414;13.226;2022-12-29T12:43:37;10.10;99.90
64209;DHT22;50527;52.414;13.226;2022-12-29T13:00:12;10.00;99.90
64209;DHT22;50527;52.414;13.226;2022-12-29T13:02:55;9.90;99.90
64209;DHT22;50527;52.414;13.226;2022-12-29T13:05:50;9.90;99.90
64209;DHT22;50527;52.414;13.226;2022-12-29T13:14:12;10.10;99.90
64209;DHT22;50527;52.414;13.226;2022-12-29T13:19:27;10.10;99.90
64209;DHT22;50527;52.414;13.226;2022-12-29T13:22:32;10.10;99.90
64209;DHT22;50527;52.414;13.226;2022-12-29T13:25:13;10.10;99.90
64209;DHT22;50527;52.414;13.226;2022-12-29T13:28:05;10.00;99.90
64209;DHT22;50527;52.414;13.226;2022-12-29T13:33:37;10.00;99.90
64209;DHT22;50527;52.414;13.226;2022-12-29T13:36:30;9.90;99.90
64209;DHT22;50527;52.414;13.226;2022-12-29T13:41:45;9.90;99.90
64209;DHT22;50527;52.414;13.226;2022-12-29T13:44:24;9.90;99.90
64209;DHT22;50527;52.414;13.226;2022-12-29T13:46:50;9.90;99.90
64209;DHT22;50527;52.414;13.226;2022-12-29T13:49:21;9.90;99.90
64209;DHT22;50527;52.414;13.226;2022-12-29T13:57:51;9.90;99.90
64209;DHT22;50527;52.414;13.226;2022-12-29T14:00:21;9.80;99.90
64209;DHT22;50527;52.414;13.226;2022-12-29T14:03:40;9.80;99.90
64209;DHT22;50527;52.414;13.226;2022-12-29T14:05:33;9.80;99.90
64209;DHT22;50527;52.414;13.226;2022-12-29T14:08:04;9.70;99.90
64209;DHT22;50527;52.414;13.226;2022-12-29T14:10:34;9.70;99.90
64209;DHT22;50527;52.414;13.226;2022-12-29T14:13:16;9.70;99.90
64209;DHT22;50527;52.414;13.226;2022-12-29T14:15:44;9.70;99.90
64209;DHT22;50527;52.414;13.226;2022-12-29T14:18:14;9.60;99.90
64209;DHT22;50527;52.414;13.226;2022-12-29T14:21:07;9.60;99.90
64209;DHT22;50527;52.414;13.226;2022-12-29T14:28:39;9.50;99.90
64209;DHT22;50527;52.414;13.226;2022-12-29T14:31:32;9.50;99.90
64209;DHT22;50527;52.414;13.226;2022-12-29T14:36:55;9.50;99.90
64209;DHT22;50527;52.414;13.226;2022-12-29T14:39:38;9.40;99.90
64209;DHT22;50527;52.414;13.226;2022-12-29T14:42:13;9.30;99.90
64209;DHT22;50527;52.414;13.226;2022-12-29T14:44:53;9.40;99.90
64209;DHT22;50527;52.414;13.226;2022-12-29T14:47:35;9.30;99.90
64209;DHT22;50527;52.414;13.226;2022-12-29T14:50:12;9.30;99.90
64209;DHT22;50527;52.414;13.226;2022-12-29T14:52:47;9.30;99.90
64209;DHT22;50527;52.414;13.226;2022-12-29T14:57:51;9.30;99.90
64209;DHT22;50527;52.414;13.226;2022-12-29T15:00:40;9.30;99.90
64209;DHT22;50527;52.414;13.226;2022-12-29T15:03:10;9.30;99.90
64209;DHT22;50527;52.414;13.226;2022-12-29T15:08:09;9.30;99.90
64209;DHT22;50527;52.414;13.226;2022-12-29T15:10:41;9.30;99.90
64209;DHT22;50527;52.414;13.226;2022-12-29T15:13:16;9.30;99.90
64209;DHT22;50527;52.414;13.226;2022-12-29T15:15:42;9.40;99.90
64209;DHT22;50527;52.414;13.226;2022-12-29T15:18:23;9.40;99.90
64209;DHT22;50527;52.414;13.226;2022-12-29T15:20:52;9.50;99.90
64209;DHT22;50527;52.414;13.226;2022-12-29T15:23:18;9.40;99.90
64209;DHT22;50527;52.414;13.226;2022-12-29T15:26:05;9.40;99.90
64209;DHT22;50527;52.414;13.226;2022-12-29T15:28:57;9.40;99.90
64209;DHT22;50527;52.414;13.226;2022-12-29T15:31:23;9.30;99.90
64209;DHT22;50527;52.414;13.226;2022-12-29T15:33:54;9.20;99.90
64209;DHT22;50527;52.414;13.226;2022-12-29T15:36:23;9.20;99.90
64209;DHT22;50527;52.414;13.226;2022-12-29T15:38:49;9.10;99.90
64209;DHT22;50527;52.414;13.226;2022-12-29T15:44:39;8.90;99.90
64209;DHT22;50527;52.414;13.226;2022-12-29T15:47:08;8.90;99.90
64209;DHT22;50527;52.414;13.226;2022-12-29T15:49:36;8.80;99.90
64209;DHT22;50527;52.414;13.226;2022-12-29T15:52:07;8.80;99.90
64209;DHT22;50527;52.414;13.226;2022-12-29T15:54:32;8.80;99.90
64209;DHT22;50527;52.414;13.226;2022-12-29T15:56:58;8.70;99.90
64209;DHT22;50527;52.414;13.226;2022-12-29T15:59:30;8.80;99.90
64209;DHT22;50527;52.414;13.226;2022-12-29T16:01:57;8.70;99.90
64209;DHT22;50527;52.414;13.226;2022-12-29T16:04:25;8.80;99.90
64209;DHT22;50527;52.414;13.226;2022-12-29T16:07:04;8.70;99.90
64209;DHT22;50527;52.414;13.226;2022-12-29T16:09:33;8.70;99.90
64209;DHT22;50527;52.414;13.226;2022-12-29T16:12:03;8.70;99.90
64209;DHT22;50527;52.414;13.226;2022-12-29T16:14:33;8.70;99.90
64209;DHT22;50527;52.414;13.226;2022-12-29T16:17:02;8.70;99.90
64209;DHT22;50527;52.414;13.226;2022-12-29T16:19:33;8.70;99.90
64209;DHT22;50527;52.414;13.226;2022-12-29T16:22:01;8.70;99.90
64209;DHT22;50527;52.414;13.226;2022-12-29T16:24:31;8.70;99.90
64209;DHT22;50527;52.414;13.226;2022-12-29T16:27:06;8.70;99.90
64209;DHT22;50527;52.414;13.226;2022-12-29T16:29:33;8.70;99.90
64209;DHT22;50527;52.414;13.226;2022-12-29T16:31:59;8.70;99.90
64209;DHT22;50527;52.414;13.226;2022-12-29T16:34:42;8.70;99.90
64209;DHT22;50527;52.414;13.226;2022-12-29T16:37:34;8.80;99.90
64209;DHT22;50527;52.414;13.226;2022-12-29T16:42:46;8.90;99.90
64209;DHT22;50527;52.414;13.226;2022-12-29T16:50:41;9.10;99.90
64209;DHT22;50527;52.414;13.226;2022-12-29T16:53:20;9.10;99.90
64209;DHT22;50527;52.414;13.226;2022-12-29T16:55:47;9.10;99.90
64209;DHT22;50527;52.414;13.226;2022-12-29T16:58:24;9.10;99.90
64209;DHT22;50527;52.414;13.226;2022-12-29T17:00:53;9.20;99.90
64209;DHT22;50527;52.414;13.226;2022-12-29T17:03:20;9.20;99.90
64209;DHT22;50527;52.414;13.226;2022-12-29T17:05:45;9.10;99.90
64209;DHT22;50527;52.414;13.226;2022-12-29T17:08:18;9.20;99.90
64209;DHT22;50527;52.414;13.226;2022-12-29T17:10:49;9.20;99.90
64209;DHT22;50527;52.414;13.226;2022-12-29T17:13:34;9.30;99.90
64209;DHT22;50527;52.414;13.226;2022-12-29T17:16:00;9.40;99.80
64209;DHT22;50527;52.414;13.226;2022-12-29T17:18:26;9.50;98.90
64209;DHT22;50527;52.414;13.226;2022-12-29T17:20:51;9.60;97.50
64209;DHT22;50527;52.414;13.226;2022-12-29T17:23:17;9.60;97.90
64209;DHT22;50527;52.414;13.226;2022-12-29T17:25:42;9.60;97.70
64209;DHT22;50527;52.414;13.226;2022-12-29T17:28:24;9.70;97.90
64209;DHT22;50527;52.414;13.226;2022-12-29T17:31:00;9.60;98.20
64209;DHT22;50527;52.414;13.226;2022-12-29T17:33:26;9.70;97.10
64209;DHT22;50527;52.414;13.226;2022-12-29T17:35:52;9.70;96.40
64209;DHT22;50527;52.414;13.226;2022-12-29T17:38:21;9.60;96.90